Tiempo atmosférico en la estación meteorológica de Puerto De Leitariegos, Asturias (1550 m.)



Fecha
DESCASC
Temp. máxima en grados centígrados (hora)
DESCASC
Temp. mínima en grados centígrados (hora)
DESCASC
Temp. media en grados centígrados
DESCASC
Racha de viento máxima en m/sg (hora)
DESCASC
Velocidad máxima media en intervalos de 10 minutos(hora)
DESCASC
Precipitaciones diarias en mm
DESCASC
Precipitaciones de 00:00 a 06:00 en mm
DESCASC
Precipitaciones de 06:00 a 12:00 en mm
DESCASC
Precipitaciones de 12:00 a 18:00 en mm
DESCASC
Precipitaciones de 18:00 a 24:00 en mm
DESCASC
03-12-2020 3.5 (10:30) -2.5 (01:00) 0.5 26.39 (16:00) 11.11 (16:50) 7.8 0 0 1 6.8
02-12-2020 2.5 (12:40) -1.8 (20:50) 0.4 15 (02:50) 7.5 (02:50) 0 0 0 0 0
01-12-2020 11.2 (10:40) 1.8 (07:20) 6.5 8.33 (19:10) 5 (18:20) 0 0 0 0 0
30-11-2020 12.6 (14:30) 1.3 (00:00) 7 6.11 (11:40) 3.89 (00:10) 0 0 0 0 0
29-11-2020 6.6 (15:20) 1.5 (00:00) 4 11.94 (12:00) 8.06 (12:00) 0 0 0 0 0
28-11-2020 8.4 (12:50) 2.2 (00:00) 5.3 10 (05:50) 6.39 (22:40) 0 0 0 0 0
27-11-2020 8 (13:50) 3.1 (00:00) 5.5 13.61 (00:10) 8.89 (00:10) 0 0 0 0 0
26-11-2020 6.5 (15:10) 2.8 (00:00) 4.6 17.78 (08:30) 10.28 (08:20) 0 0 0 0 0
25-11-2020 3.8 (00:00) 0.8 (00:00) 2.3 16.39 (21:40) 10 (21:50) 5.2 1 0.6 3.6 0
24-11-2020 8.9 (12:10) 2.8 (00:00) 5.8 12.22 (22:30) 6.39 (22:40) 0 0 0 0 0
23-11-2020 14.1 (12:30) 3.4 (00:00) 8.8 5.83 (12:20) 3.61 (12:20) 0 0 0 0 0
22-11-2020 12.4 (13:40) 3.7 (00:00) 8 6.67 (17:50) 5.28 (17:50) 0 0 0 0 0
21-11-2020 15.7 (14:40) 6.1 (00:00) 10.9 5.83 (12:30) 4.17 (12:30) 0 0 0 0 0
20-11-2020 15.4 (14:30) 3.8 (00:00) 9.6 6.39 (14:30) 3.89 (15:50) 0 0 0 0 0
19-11-2020 13.8 (14:00) 2.1 (00:00) 8 6.67 (07:10) 5 (14:50) 0 0 0 0 0
18-11-2020 16.1 (14:40) 6.6 (00:00) 11.4 15.28 (05:40) 7.5 (05:40) 0 0 0 0 0
17-11-2020 17 (14:50) 3.1 (00:00) 10 8.89 (22:40) 4.17 (15:40) 0 0 0 0 0
16-11-2020 14.1 (15:40) 1.2 (00:00) 7.7 -- (--) -- (--) 0 0 0 0 0
15-11-2020 10.9 (13:20) 5.2 (00:00) 8 20.56 (12:00) 10.28 (12:00) 6 0 4.4 1.6 0
14-11-2020 9.9 (12:00) 1.1 (00:00) 5.5 20.28 (18:50) 10 (19:00) 0 0 0 0 0
13-11-2020 13.5 (15:00) 2.3 (00:00) 7.9 6.94 (14:40) 5 (12:00) 0 0 0 0 0
12-11-2020 13.5 (15:30) 4.5 (00:00) 9 7.5 (15:00) 4.72 (12:20) 0 0 0 0 0
11-11-2020 8.6 (13:30) -0.2 (00:00) 4.2 18.33 (14:20) 9.17 (14:10) 0 0 0 0 0
10-11-2020 12.1 (15:30) -0.9 (-00:0) 5.6 7.5 (14:50) 3.89 (23:00) 0 0 0 0 0
09-11-2020 8.1 (14:40) 3 (00:00) 5.6 13.33 (00:20) 6.11 (06:30) 0.8 0 0.4 0.4 0
08-11-2020 9.3 (14:00) 6 (00:00) 7.7 20 (18:30) 8.06 (18:20) 1 0 1 0 0
07-11-2020 10.2 (13:40) 6.1 (00:00) 8.1 18.61 (02:00) 10.56 (00:20) 0 0 0 0 0
06-11-2020 11.6 (14:10) 5.8 (00:00) 8.7 25.83 (16:20) 16.39 (16:20) 0 0 0 0 0
05-11-2020 7.6 (11:00) 2.4 (00:00) 5 21.11 (01:50) 13.06 (23:20) 0.4 0 0 0 0.4

Gráficas

Temp. máximas Temp. mínimas Temp. medias Precipitaciones Rachas de viento máximas Velocidades máximas media en intervalos de 10 minutos

Datos horarios

Fecha y hora oficial Temperatura (ºC) Velocidad del viento (km/h) Dirección del viento Racha (km/h) Dirección de racha Precipitación (mm) Presión (hPa) Tendencia (hPa) Humedad (%)
2020-12-04 23:00:00 -4.3 28 Noroeste 59 Noroeste 0.4 828.2 -- 94
2020-12-04 22:00:00 -4.2 27 Noroeste 45 Noroeste 0 827.9 -- 94
2020-12-04 21:00:00 -4.1 26 Noroeste 40 Noroeste 0.8 827.2 -- 94
2020-12-04 20:00:00 -4.1 14 Noroeste 22 Noroeste 0 826.7 -- 94
2020-12-04 19:00:00 -4.2 12 Noroeste 131 Sudeste 1.2 826.3 -- 94
2020-12-04 18:00:00 -4.2 13 Noroeste 25 Noroeste 0.8 826 -- 94
2020-12-04 17:00:00 -4.2 17 Noroeste 42 Noroeste 0.2 825.5 -- 93
2020-12-04 16:00:00 -3 23 Noroeste 37 Noroeste 0 825.1 -- 89
2020-12-04 15:00:00 -2.8 22 Noroeste 36 Noroeste 0 825 -- 89
2020-12-04 14:00:00 -2.8 16 Noroeste 32 Noroeste 0 825.3 -- 91
2020-12-04 13:00:00 -3.3 18 Noroeste 27 Noroeste 0.8 825.5 -- 92
2020-12-04 12:00:00 -3.5 16 Noroeste 26 Noroeste 0 825.8 -- 92
2020-12-04 11:00:00 -3.2 17 Noroeste 27 Noroeste 0.2 825.7 -- 91
2020-12-04 10:00:00 -4 10 Noroeste 27 Noroeste 0.8 825.4 -- 93
2020-12-04 09:00:00 -4.4 12 Noroeste 44 Noroeste 0 825.3 -- 93
2020-12-04 08:00:00 -4.5 22 Noroeste 41 Noroeste 0 825.1 -- 91
2020-12-04 07:00:00 -4.4 18 Noroeste 48 Noroeste 0.6 825.2 -- 93
2020-12-04 06:00:00 -4.6 17 Noroeste 52 Noroeste 0 825.4 -- 93
2020-12-04 05:00:00 -4.6 18 Noroeste 48 Noroeste 0 826.4 -- 92
2020-12-04 04:00:00 -4.3 19 Noroeste 68 Noroeste 0 826.5 -- 93
2020-12-04 03:00:00 -3.9 25 Noroeste -- -- 0.2 826.9 -- 94
2020-12-04 02:00:00 -3.4 23 Noroeste 58 Noroeste 0.4 827.5 -- 94
2020-12-04 01:00:00 -2.2 21 Noroeste 60 Noroeste 0.4 827.7 -- 94
2020-12-04 00:00:00 -1.7 33 Noroeste 65 Noroeste 1 828.8 -- 95
2020-12-03 23:00:00 -0.6 27 Noroeste 52 Noroeste 2 828.9 -- 95
2020-12-03 22:00:00 0.2 28 Noroeste 63 Noroeste 1.8 829.2 -- 94
2020-12-03 21:00:00 1.1 27 Noroeste 56 Noroeste 1.2 829.6 -- 91
2020-12-03 20:00:00 1.8 33 Noroeste 89 Noroeste 0.2 830.3 -- 87
2020-12-03 19:00:00 1.5 28 Noroeste 67 Noroeste 0.6 832 -- 88
2020-12-03 18:00:00 1 24 Noroeste 51 Oeste 1 833.5 -- 91
2020-12-03 17:00:00 1.7 28 Noroeste 91 Noroeste 0 833.9 -- 87
2020-12-03 16:00:00 1.9 36 Noroeste 95 Noroeste 0 834.9 -- 84
2020-12-03 15:00:00 1.8 28 Norte 76 Noroeste 0 836.4 -- 82
2020-12-03 14:00:00 2.5 28 Norte 58 Noroeste 0 837.2 -- 79
2020-12-03 13:00:00 1.7 23 Noroeste 63 Oeste 0 839.7 -- 80
2020-12-03 12:00:00 2.3 19 Oeste 58 Sudoeste 0 840.5 -- 71
2020-12-03 11:00:00 2.3 20 Oeste 40 Noroeste 0 842 -- 72
2020-12-03 10:00:00 2.6 13 Noroeste 35 Noroeste 0 842.4 -- 68
2020-12-03 09:00:00 0.6 5 Oeste 25 Oeste 0 842.6 -- 64
2020-12-03 08:00:00 -0.8 4 Nordeste 10 Sudeste 0 843.2 -- 78
2020-12-03 07:00:00 -1.4 3 Sudeste 11 Sur 0 843.9 -- 84
2020-12-03 06:00:00 -1.2 6 Sudeste 11 Sudeste 0 844.6 -- 86
2020-12-03 05:00:00 -2.2 2 Sudeste 21 Noroeste 0 845.5 -- 92
2020-12-03 04:00:00 -2 15 Noroeste 18 Noroeste 0 846.7 -- 87
2020-12-03 03:00:00 -2.1 4 Este 18 Noroeste 0 846.5 -- 89
2020-12-03 02:00:00 -1.7 4 Sudeste 13 Noroeste 0 847.1 -- 85
2020-12-03 01:00:00 -2.5 13 Noroeste 19 Noroeste 0 848.3 -- 87
2020-12-03 00:00:00 -1.3 0 Calma 10 Sudeste 0 848.1 -- 74
2020-12-02 23:00:00 -1.6 6 Sudeste 14 Norte 0 848.4 -- 78
2020-12-02 22:00:00 -0.7 12 Noroeste 19 Noroeste 0 848.9 -- 79
2020-12-02 21:00:00 -1.6 8 Noroeste 17 Sudoeste 0 849 -- 87
2020-12-02 20:00:00 -1.4 7 Noroeste 19 Norte 0 849 -- 87
2020-12-02 19:00:00 -1.1 14 Norte 20 Norte 0 848.8 -- 87
2020-12-02 18:00:00 0 9 Oeste 21 Noroeste 0 848.9 -- 71
2020-12-02 17:00:00 0.2 5 Sur 40 Noroeste 0 849 -- 85
2020-12-02 16:00:00 0.3 13 Noroeste 31 Noroeste 0 848.9 -- 90
2020-12-02 15:00:00 0.7 17 Noroeste 38 Noroeste 0 848.7 -- 87
2020-12-02 14:00:00 2 17 Noroeste 33 Oeste 0 848.8 -- 82
2020-12-02 13:00:00 1.8 15 Noroeste 42 Noroeste 0 849 -- 72
2020-12-02 12:00:00 0.4 18 Noroeste 31 Noroeste 0 849.7 -- 69
2020-12-02 11:00:00 -0.2 13 Noroeste 26 Oeste 0 849.6 -- 84
2020-12-02 10:00:00 -0.4 13 Noroeste 22 Noroeste 0 849.5 -- 75
2020-12-02 09:00:00 -0.3 13 Noroeste 24 Oeste 0 849.5 -- 83
2020-12-02 08:00:00 0.1 17 Noroeste 36 Noroeste 0 849.3 -- 88
2020-12-02 07:00:00 1 18 Noroeste 33 Noroeste 0 849.2 -- 92
2020-12-02 06:00:00 1.6 17 Noroeste 29 Norte 0 849.5 -- 91
2020-12-02 05:00:00 1.8 13 Noroeste 36 Noroeste 0 849.5 -- 95
2020-12-02 04:00:00 2.3 19 Noroeste 44 Oeste 0 849.9 -- 96
2020-12-02 03:00:00 1.9 25 Noroeste 54 Noroeste 0 849.7 -- 96
2020-12-02 02:00:00 2.1 17 Noroeste 40 Oeste 0 850.1 -- 95
2020-12-02 01:00:00 1.9 19 Noroeste 36 Norte 0 850.7 -- 94
2020-12-02 00:00:00 2.1 13 Noroeste 29 Oeste 0 851.2 -- 88
2020-12-01 23:00:00 2.3 15 Noroeste 23 Noroeste 0 851.4 -- 81
2020-12-01 22:00:00 2.4 13 Noroeste 23 Norte 0 851.9 -- 74
2020-12-01 21:00:00 3.4 9 Noroeste 27 Noroeste 0 852.3 -- 70
2020-12-01 20:00:00 3.2 14 Noroeste 30 Oeste 0 852.5 -- 68
2020-12-01 19:00:00 3.6 18 Noroeste 28 Noroeste 0 852.8 -- 62
2020-12-01 18:00:00 4.3 10 Noroeste 26 Oeste 0 852.9 -- 59
2020-12-01 17:00:00 6.4 15 Noroeste 28 Oeste 0 853.1 -- 51
2020-12-01 16:00:00 7.4 11 Noroeste 22 Noroeste 0 853.3 -- 49
2020-12-01 15:00:00 8.8 10 Noroeste 23 Sudeste 0 853.7 -- 37
2020-12-01 14:00:00 10.2 4 Sudeste 24 Sur 0 854.3 -- 33
2020-12-01 13:00:00 10.1 9 Nordeste 23 Nordeste 0 854.8 -- 31
2020-12-01 12:00:00 10.2 8 Nordeste 22 Norte 0 855.2 -- 27
2020-12-01 11:00:00 10.5 9 Nordeste 18 Norte 0 855.2 -- 25
2020-12-01 10:00:00 9.3 3 Este 9 Este 0 855 -- 28
2020-12-01 09:00:00 2.6 4 Norte 10 Noroeste 0 854.8 -- 39
2020-12-01 08:00:00 2.3 3 Noroeste 5 Oeste 0 854.7 -- 38
2020-12-01 07:00:00 2.6 3 Norte 12 Noroeste 0 854.6 -- 47
2020-12-01 06:00:00 3.7 3 Sur 11 Sur 0 854.3 -- 49
2020-12-01 05:00:00 4 6 Sur 12 Sudeste 0 854.4 -- 55
2020-12-01 04:00:00 4.6 8 Sudeste 12 Sudeste 0 854.6 -- 53
2020-12-01 03:00:00 3.4 2 Este 6 Nordeste 0 854.9 -- 59
2020-12-01 02:00:00 3.7 4 Sudeste 7 Nordeste 0 855 -- 60
2020-12-01 01:00:00 4.5 2 Noroeste 10 Sudeste 0 855.2 -- 56
2020-12-01 00:00:00 5 6 Sudeste 15 Sur 0 855.1 -- 56
2020-11-30 23:00:00 4.2 6 Sudeste 9 Sudeste 0 855.1 -- 63
2020-11-30 22:00:00 3.3 3 Norte 8 Sudeste 0 855 -- 65
2020-11-30 21:00:00 3.2 0 Calma 5 Oeste 0 854.6 -- 64
2020-11-30 20:00:00 3.7 2 Norte 7 Noroeste 0 854 -- 64
2020-11-30 19:00:00 4.3 3 Norte 11 Sur 0 853.8 -- 65
2020-11-30 18:00:00 5.7 4 Sur 9 Sur 0 853.3 -- 62
2020-11-30 17:00:00 6.8 0 Calma 15 Sur 0 853 -- 53
2020-11-30 16:00:00 8.3 10 Sur 16 Sudoeste 0 852.8 -- 46
2020-11-30 15:00:00 12.2 11 Sur 18 Sudeste 0 853 -- 34
2020-11-30 14:00:00 11 10 Sur 18 Sudeste 0 853 -- 37
2020-11-30 13:00:00 9.2 8 Sudeste 17 Sudeste 0 853.1 -- 49
2020-11-30 12:00:00 9.6 11 Sur 22 Sudeste 0 853.2 -- 43
2020-11-30 11:00:00 8.6 10 Sudeste 13 Sudeste 0 852.8 -- 55
2020-11-30 10:00:00 6.7 8 Sudeste 11 Sudeste 0 852.5 -- 57
2020-11-30 09:00:00 1.6 0 Calma 4 Sur 0 852 -- 70
2020-11-30 08:00:00 2.1 2 Sudeste 10 Noroeste 0 851.7 -- 70
2020-11-30 07:00:00 3.4 8 Noroeste 13 Noroeste 0 851.3 -- 65
2020-11-30 06:00:00 2.8 5 Noroeste 10 Noroeste 0 851 -- 70
2020-11-30 05:00:00 2.8 2 Este 8 Sudeste 0 850.9 -- 70
2020-11-30 04:00:00 2.1 2 Noroeste 8 Sur 0 850.8 -- 74
2020-11-30 03:00:00 3.4 5 Sur 12 Sur 0 850.7 -- 73
2020-11-30 02:00:00 3.2 6 Sur 15 Sur 0 850.6 -- 74
2020-11-30 01:00:00 3.5 7 Sur 19 Sur 0 850.4 -- 76
2020-11-30 00:00:00 3.9 10 Sur 17 Sur 0 850 -- 75
2020-11-29 23:00:00 3.7 13 Sur 26 Sur 0 849.6 -- 79
2020-11-29 22:00:00 3.2 13 Sur 20 Sudeste 0 849.2 -- 85
2020-11-29 21:00:00 3.3 15 Sudeste 22 Sur 0 848.5 -- 85
2020-11-29 20:00:00 3.4 15 Sur 21 Sur 0 848.4 -- 86
2020-11-29 19:00:00 3.1 7 Sudeste 24 Sudeste 0 847.8 -- 85
2020-11-29 18:00:00 3.6 14 Sudeste 22 Sudeste 0 847.4 -- 84
2020-11-29 17:00:00 5.1 13 Sur 23 Sur 0 847 -- 79
2020-11-29 16:00:00 5.4 16 Sudeste 33 Sur 0 846.6 -- 79
2020-11-29 15:00:00 5.7 22 Sur 39 Sudeste 0 846.3 -- 78
2020-11-29 14:00:00 6.4 23 Sudeste 36 Sudeste 0 846.3 -- 74
2020-11-29 13:00:00 6.3 19 Sudeste 43 Sudeste 0 846.1 -- 76
2020-11-29 12:00:00 5.8 29 Sudeste 43 Sudeste 0 845.9 -- 76
2020-11-29 11:00:00 4.9 26 Sudeste 38 Sudeste 0 845.6 -- 81
2020-11-29 10:00:00 3.9 19 Sur 32 Sudeste 0 844.7 -- 84
2020-11-29 09:00:00 1.9 13 Sudeste 19 Sudeste 0 843.7 -- 90
2020-11-29 08:00:00 1.5 15 Sudeste 23 Sudeste 0 843 -- 91
2020-11-29 07:00:00 2.8 14 Sur 34 Sudeste 0 842.6 -- 88
2020-11-29 06:00:00 3.3 19 Sudeste 27 Sudeste 0 842 -- 87
2020-11-29 05:00:00 3.7 16 Sudeste 33 Sudeste 0 841.8 -- 83
2020-11-29 04:00:00 3.2 18 Sudeste 39 Sudeste 0 841.4 -- 86
2020-11-29 03:00:00 2.7 18 Sudeste 28 Sudeste 0 841 -- 89
2020-11-29 02:00:00 2.8 20 Sudeste 38 Sudeste 0 840.7 -- 89
2020-11-29 01:00:00 2.6 19 Sudeste 32 Sudeste 0 840.4 -- 89
2020-11-29 00:00:00 3.2 17 Sudeste 34 Sudeste 0 839.9 -- 86
2020-11-28 23:00:00 3.4 23 Sudeste 35 Sudeste 0 839.6 -- 85
2020-11-28 22:00:00 3.1 16 Sudeste 29 Sudeste 0 839.1 -- 87
2020-11-28 21:00:00 3.6 19 Sudeste 29 Sudeste 0 838.7 -- 84
2020-11-28 20:00:00 2.6 14 Sudeste 27 Sudeste 0 838.5 -- 87
2020-11-28 19:00:00 3.2 18 Sudeste 28 Sudeste 0 838.2 -- 83
2020-11-28 18:00:00 4.4 20 Sudeste 31 Sudeste 0 837.5 -- 77
2020-11-28 17:00:00 4.9 21 Sudeste 36 Sudeste 0 837.1 -- 73
2020-11-28 16:00:00 5.3 19 Sudeste 29 Sudeste 0 836.6 -- 75
2020-11-28 15:00:00 6 17 Sudeste 28 Sur 0 836.8 -- 72
2020-11-28 14:00:00 6.1 21 Sudeste 29 Sudeste 0 837 -- 72
2020-11-28 13:00:00 7.9 19 Sudeste 28 Sudeste 0 837.4 -- 63
2020-11-28 12:00:00 7.2 16 Sudeste 32 Sudeste 0 837.9 -- 70
2020-11-28 11:00:00 6.5 18 Sudeste 29 Sudeste 0 838.2 -- 71
2020-11-28 10:00:00 5.7 14 Sudeste 23 Sur 0 838 -- 75
2020-11-28 09:00:00 2.3 12 Sudeste 28 Sudeste 0 837.8 -- 89
2020-11-28 08:00:00 3.2 18 Sudeste 35 Sudeste 0 837.7 -- 86
2020-11-28 07:00:00 3.5 18 Sudeste 33 Sur 0 837.5 -- 86
2020-11-28 06:00:00 3.5 19 Sudeste 36 Sudeste 0 837.8 -- 88
2020-11-28 05:00:00 3.4 19 Sudeste 34 Sudeste 0 838.1 -- 90
2020-11-28 04:00:00 3.7 14 Sudeste 27 Sudeste 0 838.6 -- 89
2020-11-28 03:00:00 4.1 11 Sudeste 20 Sudeste 0 838.8 -- 87
2020-11-28 02:00:00 3.9 13 Sudeste 19 Sur 0 839.2 -- 88
2020-11-28 01:00:00 3.8 11 Sudeste 20 Sudeste 0 839.6 -- 89
2020-11-28 00:00:00 4.2 12 Sudeste 24 Sur 0 839.8 -- 88
2020-11-27 23:00:00 4.1 13 Sudeste 24 Sudeste 0 840.4 -- 88
2020-11-27 22:00:00 4 13 Sudeste 25 Sudeste 0 840.5 -- 87
2020-11-27 21:00:00 4.3 15 Sudeste 25 Sudeste 0 840.6 -- 86
2020-11-27 20:00:00 3.1 15 Sudeste 25 Sur 0 840.5 -- 88
2020-11-27 19:00:00 4.4 15 Sudeste 37 Sudeste 0 840.6 -- 82
2020-11-27 18:00:00 4.8 19 Sudeste 40 Sudeste 0 840.5 -- 82
2020-11-27 17:00:00 5.8 28 Sudeste 46 Sudeste 0 840.7 -- 75
2020-11-27 16:00:00 6.7 15 Sudeste 30 Sudeste 0 841.1 -- 74
2020-11-27 15:00:00 6.7 22 Sudeste 42 Sudeste 0 841.3 -- 73
2020-11-27 14:00:00 7.9 26 Sudeste 45 Sudeste 0 841.5 -- 70
2020-11-27 13:00:00 7.3 27 Sudeste 39 Sudeste 0 842.2 -- 75
2020-11-27 12:00:00 6.9 23 Sudeste 40 Sudeste 0 843 -- 77
2020-11-27 11:00:00 5.7 23 Sudeste 38 Sudeste 0 843.1 -- 84
2020-11-27 10:00:00 4.4 23 Sudeste 40 Sudeste 0 843 -- 90
2020-11-27 09:00:00 4 17 Sudeste 35 Sudeste 0 842.7 -- 90
2020-11-27 08:00:00 4 24 Sudeste 35 Sudeste 0 842.7 -- 93
2020-11-27 07:00:00 3.5 20 Sudeste 29 Sudeste 0 842.4 -- 93
2020-11-27 06:00:00 3.9 18 Sudeste 35 Sudeste 0 842.5 -- 93
2020-11-27 05:00:00 4.3 23 Sudeste 37 Sudeste 0 842.5 -- 92
2020-11-27 04:00:00 3.8 19 Sudeste 37 Sudeste 0 842.5 -- 92
2020-11-27 03:00:00 4.3 27 Sudeste 38 Sudeste 0 842.4 -- 94
2020-11-27 02:00:00 4.4 24 Sudeste 38 Sudeste 0 842.7 -- 93
2020-11-27 01:00:00 4.6 28 Sudeste 49 Sudeste 0 843 -- 90
2020-11-27 00:00:00 4.8 29 Sudeste 46 Sudeste 0 843 -- 90
2020-11-26 23:00:00 5.1 23 Sudeste 39 Sudeste 0 843 -- 87
2020-11-26 22:00:00 5.1 17 Sudeste 27 Sudeste 0 843.1 -- 85
2020-11-26 21:00:00 5 19 Sudeste 29 Sudeste 0 842.8 -- 83
2020-11-26 20:00:00 4.3 12 Sudeste 30 Sur 0 842.8 -- 84
2020-11-26 19:00:00 4.4 9 Sudeste 24 Sudeste 0 842.7 -- 86
2020-11-26 18:00:00 5.2 12 Sur 28 Sudeste 0 842.5 -- 83
2020-11-26 17:00:00 5.2 20 Sudeste 38 Sudeste 0 842.1 -- 84
2020-11-26 16:00:00 5.5 23 Sudeste 37 Sudeste 0 842.1 -- 82
2020-11-26 15:00:00 6.3 20 Sudeste 36 Sudeste 0 841.8 -- 81
2020-11-26 14:00:00 5.2 27 Sudeste 42 Sudeste 0 841.7 -- 87
2020-11-26 13:00:00 4.5 32 Sudeste 53 Sudeste 0 841.8 -- 90
2020-11-26 12:00:00 4.2 27 Sudeste 48 Sudeste 0 842.1 -- 92
2020-11-26 11:00:00 4.3 25 Sudeste 59 Sudeste 0 841.7 -- 91
2020-11-26 10:00:00 3.9 33 Sudeste 63 Sudeste 0 841.4 -- 94
2020-11-26 09:00:00 3.9 32 Sudeste 64 Sudeste 0 840.7 -- 94
2020-11-26 08:00:00 3.8 32 Sudeste 60 Sudeste 0 840 -- 94
2020-11-26 07:00:00 3.5 28 Sudeste 49 Sudeste 0 839.8 -- 95
2020-11-26 06:00:00 3.2 18 Sudeste 36 Sudeste 0 839.9 -- 96
2020-11-26 05:00:00 3.2 23 Sudeste 47 Sudeste 0 840 -- 96
2020-11-26 04:00:00 3.1 30 Sudeste 46 Sudeste 0 839.6 -- 94
2020-11-26 03:00:00 3 25 Sudeste 44 Sudeste 0 839.6 -- 94
2020-11-26 02:00:00 3.1 23 Sudeste 39 Sudeste 0 839.7 -- 93
2020-11-26 01:00:00 3.1 17 Sudeste 33 Sudeste 0 839.9 -- 94
2020-11-26 00:00:00 2.8 22 Sudeste 40 Sudeste 0 839.6 -- 95
2020-11-25 23:00:00 2.9 28 Sudeste 46 Sudeste 0 839.8 -- 92
2020-11-25 22:00:00 2.5 33 Sudeste 59 Sudeste 0 839.6 -- 93
2020-11-25 21:00:00 1.8 30 Sudeste 48 Sudeste 0 839.8 -- 94
2020-11-25 20:00:00 1.4 19 Sudeste 33 Sudeste 0 839.8 -- 93
2020-11-25 19:00:00 0.9 19 Sudeste 33 Sudeste 0 840 -- 93
2020-11-25 18:00:00 0.9 21 Sudeste 36 Sudeste 0 840.2 -- 93
2020-11-25 17:00:00 0.9 22 Sudeste 34 Sudeste 0.2 840.4 -- 93
2020-11-25 16:00:00 0.9 19 Sudeste 27 Sudeste 0.2 840.5 -- 93
2020-11-25 15:00:00 1 14 Sur 22 Sur 0.8 840.9 -- 92
2020-11-25 14:00:00 0.8 13 Sudeste 27 Sur 1.6 841.4 -- 92
2020-11-25 13:00:00 1.7 17 Sudeste 26 Sudeste 0.8 842 -- 92
2020-11-25 12:00:00 2 17 Sudeste 27 Sudeste 0.2 842.5 -- 94
2020-11-25 11:00:00 2.2 18 Sudeste 28 Sudeste 0.4 842.4 -- 95
2020-11-25 10:00:00 2.1 18 Sudeste 31 Sudeste 0 842.6 -- 96
2020-11-25 09:00:00 2.1 14 Sudeste 23 Sur 0 842.5 -- 95
2020-11-25 08:00:00 2 13 Sudeste 22 Sudeste 0 842.4 -- 95
2020-11-25 07:00:00 2 12 Sudeste 21 Sudeste 0 842.4 -- 94
2020-11-25 06:00:00 1.8 16 Sudeste 23 Sur 0.6 842.5 -- 91
2020-11-25 05:00:00 2.9 9 Sudeste 29 Sudeste 0.4 843 -- 92
2020-11-25 04:00:00 3.1 14 Sudeste 24 Sudeste 0 843.3 -- 95
2020-11-25 03:00:00 3.2 13 Sudeste 22 Sur 0 843.5 -- 93
2020-11-25 02:00:00 3.2 14 Sudeste 24 Sur 0 843.7 -- 91
2020-11-25 01:00:00 3.1 18 Sudeste 29 Sur 0 844.1 -- 91
2020-11-25 00:00:00 3.8 15 Sur 24 Sudeste 0 844.7 -- 86
2020-11-24 23:00:00 4.7 17 Sudeste 44 Sur 0 845.1 -- 82
2020-11-24 22:00:00 4.5 17 Sudeste 36 Sudeste 0 845.5 -- 82
2020-11-24 21:00:00 4.7 13 Este 23 Sudeste 0 846 -- 79
2020-11-24 20:00:00 4.5 10 Sudeste 23 Sudeste 0 846.5 -- 81
2020-11-24 19:00:00 4.5 8 Sudeste 25 Sudeste 0 846.9 -- 80
2020-11-24 18:00:00 4.9 18 Sudeste 39 Sur 0 847.1 -- 74
2020-11-24 17:00:00 5.5 13 Sur 32 Sudoeste 0 847.1 -- 73
2020-11-24 16:00:00 6.4 15 Sudeste 32 Sur 0 847.3 -- 61
2020-11-24 15:00:00 8.3 15 Sudeste 32 Sudeste 0 847.9 -- 49
2020-11-24 14:00:00 7.9 14 Sudeste 30 Sudeste 0 848.5 -- 54
2020-11-24 13:00:00 7.6 14 Sudeste 26 Sudeste 0 849.5 -1 56
2020-11-24 12:00:00 8.7 14 Sudeste 25 Sudeste 0 850.2 -- 57
2020-11-24 11:00:00 7.2 16 Sudeste 27 Sudeste 0 850.4 -- 62
2020-11-24 10:00:00 4.9 9 Sudeste 17 Sur 0 850.5 -- 60
2020-11-24 09:00:00 4.2 10 Sur 14 Sur 0 850.6 -- 57
2020-11-24 08:00:00 3.6 6 Sur 13 Sudeste 0 850.8 -- 59
2020-11-24 07:00:00 3.2 8 Sur 18 Sur 0 850.9 -- 55
2020-11-24 06:00:00 3.2 9 Sudeste 21 Sur 0 851.1 -- 53
2020-11-24 05:00:00 4.2 15 Sudeste 25 Sur 0 851.3 -- 51
2020-11-24 04:00:00 3.4 10 Sudeste 19 Sur 0 851.9 -- 54
2020-11-24 03:00:00 4.3 10 Sur 19 Sur 0 852.4 -- 53
2020-11-24 02:00:00 5 13 Sur 18 Sur 0 853 -- 49
2020-11-24 01:00:00 3.9 11 Sudeste 15 Sudeste 0 853.5 -- 67
2020-11-24 00:00:00 5.1 9 Sudeste 14 Sur 0 854 -- 63
2020-11-23 23:00:00 5.7 8 Sur 17 Sur 0 854.5 -- 62
2020-11-23 22:00:00 6 12 Sur 16 Sudeste 0 854.7 -- 67
2020-11-23 21:00:00 6.1 7 Sur 15 Sur 0 855.1 -- 66
2020-11-23 20:00:00 6.9 9 Sur 15 Sur 0 855.2 -- 64
2020-11-23 19:00:00 7.6 4 Sudeste 8 Sur 0 855.2 -- 64
2020-11-23 18:00:00 7.8 2 Oeste 9 Noroeste 0 855 -- 58
2020-11-23 17:00:00 9 7 Noroeste 13 Sur 0 855.1 -- 56
2020-11-23 16:00:00 11.4 10 Sur 13 Sur 0 855.1 -- 44
2020-11-23 15:00:00 13.7 8 Sur 13 Sudeste 0 855.6 -- 39
2020-11-23 14:00:00 13.6 9 Sur 18 Sudeste 0 856 -- 39
2020-11-23 13:00:00 13.3 12 Sudeste 21 Sur 0 856.6 -- 39
2020-11-23 12:00:00 13.5 12 Sudeste 18 Sur 0 857.2 -- 34
2020-11-23 11:00:00 11.7 9 Sudeste 13 Sudeste 0 857.2 -- 47
2020-11-23 10:00:00 8.5 8 Sudeste 9 Sudeste 0 857.1 -- 54
2020-11-23 09:00:00 3.8 2 Nordeste 8 Nordeste 0 856.8 -- 64
2020-11-23 08:00:00 3.4 0 Calma 4 Norte 0 856.6 -- 67
2020-11-23 07:00:00 3.5 0 Calma 4 Nordeste 0 856.4 -- 68
2020-11-23 06:00:00 4.1 0 Calma 7 Sudeste 0 856.4 -- 68
2020-11-23 05:00:00 4.2 4 Sudeste 6 Sudeste 0 856.5 -- 70
2020-11-23 04:00:00 3.8 0 Calma 4 Nordeste 0 856.9 -- 70
2020-11-23 03:00:00 3.9 0 Calma 8 Sudeste 0 857 -- 71
2020-11-23 02:00:00 4.1 0 Calma 8 Sur 0 857 -- 68
2020-11-23 01:00:00 5.1 5 Sudeste 8 Sudeste 0 857.2 -- 65
2020-11-23 00:00:00 4.7 5 Sudeste 12 Noroeste 0 857.3 -- 64
2020-11-22 23:00:00 4.4 8 Noroeste 11 Noroeste 0 857.5 -- 66
2020-11-22 22:00:00 4.5 8 Noroeste 13 Norte 0 857.4 -- 66
2020-11-22 21:00:00 4.9 9 Noroeste 17 Noroeste 0 857.5 -- 70
2020-11-22 20:00:00 5.3 13 Noroeste 16 Noroeste 0 857.2 -- 70
2020-11-22 19:00:00 5.3 10 Noroeste 22 Noroeste 0 856.9 -- 71
2020-11-22 18:00:00 6.8 18 Noroeste 24 Oeste 0 856.6 -- 67
2020-11-22 17:00:00 7.7 14 Noroeste 19 Noroeste 0 856.3 -- 62
2020-11-22 16:00:00 8.6 13 Noroeste 20 Oeste 0 856.2 -- 55
2020-11-22 15:00:00 11.8 15 Noroeste 19 Noroeste 0 856.4 -- 46
2020-11-22 14:00:00 12 13 Noroeste 17 Noroeste 0 856.6 -- 48
2020-11-22 13:00:00 12.1 10 Noroeste 15 Noroeste 0 857 -- 47
2020-11-22 12:00:00 11.8 10 Noroeste 13 Noroeste 0 857.3 -- 43
2020-11-22 11:00:00 11.4 6 Noroeste 11 Norte 0 857.3 -- 45
2020-11-22 10:00:00 9.5 8 Norte 10 Norte 0 857.2 -- 49
2020-11-22 09:00:00 5.7 10 Noroeste 16 Noroeste 0 856.8 -- 53
2020-11-22 08:00:00 5 2 Noroeste 13 Noroeste 0 856.6 -- 57
2020-11-22 07:00:00 6 7 Noroeste 16 Noroeste 0 856.6 -- 54
2020-11-22 06:00:00 5.7 6 Noroeste 10 Noroeste 0 856.4 -- 46
2020-11-22 05:00:00 5 0 Calma 5 Nordeste 0 856.2 -- 47
2020-11-22 04:00:00 5.2 2 Norte 6 Nordeste 0 856.2 -- 46
2020-11-22 03:00:00 4.9 0 Calma 9 Sudeste 0 856.1 -- 52
2020-11-22 02:00:00 5.4 5 Sudeste 10 Sudeste 0 856.2 -- 52
2020-11-22 01:00:00 6.7 6 Sudeste 10 Sudeste 0 856.3 -- 44
2020-11-22 00:00:00 7 5 Sudeste 10 Sur 0 856.4 -- 47
2020-11-21 23:00:00 7.8 6 Sudeste 13 Sudeste 0 856.5 -- 43
2020-11-21 22:00:00 8.2 8 Sur 13 Sur 0 856.6 -- 43
2020-11-21 21:00:00 8.4 8 Sur 13 Sur 0 856.8 -- 45
2020-11-21 20:00:00 8.9 9 Sur 14 Sur 0 856.5 -- 44
2020-11-21 19:00:00 9.1 8 Sur 13 Sur 0 856.5 -- 44
2020-11-21 18:00:00 10.1 8 Sur 14 Sur 0 856.1 -- 42
2020-11-21 17:00:00 10.8 10 Sur 19 Sudoeste 0 856.1 -- 41
2020-11-21 16:00:00 11.2 11 Sur 18 Sur 0 856.2 -- 48
2020-11-21 15:00:00 15.6 10 Sur 17 Sur 0 856.5 -- 37
2020-11-21 14:00:00 14.7 10 Sur 18 Sudeste 0 857 -- 41
2020-11-21 13:00:00 13.7 12 Sudeste 21 Sudeste 0 857.5 -- 45
2020-11-21 12:00:00 13.3 12 Sudeste 21 Sudeste 0 857.9 -- 48
2020-11-21 11:00:00 13 12 Sudeste 15 Sudeste 0 857.8 -- 48
2020-11-21 10:00:00 10.9 10 Sudeste -- -- 0 857.7 -- 53
2020-11-21 09:00:00 7.1 8 Sudeste 12 Sudeste 0 857.6 -- 62
2020-11-21 08:00:00 6.1 10 Sudeste 13 Sudeste 0 857.4 -- 65
2020-11-21 07:00:00 7.2 4 Sudeste 6 Sudeste 0 857.3 -- 62
2020-11-21 06:00:00 8.4 5 Sudeste 14 Sur 0 857.4 -- 58
2020-11-21 05:00:00 9.1 9 Sur 14 Sur 0 857.4 -- 55
2020-11-21 04:00:00 8.7 8 Sur 13 Sur 0 857.8 -- 54
2020-11-21 03:00:00 8.8 7 Sur 13 Sur 0 858.1 -- 51
2020-11-21 02:00:00 7.3 6 Sudeste 15 Sur 0 858.3 -- 53
2020-11-21 01:00:00 8.7 6 Sur 12 Sur 0 858.9 -- 48
2020-11-21 00:00:00 8.1 10 Sudeste 16 Sur 0 858.8 -- 50
2020-11-20 23:00:00 7.2 7 Sudeste 14 Sur 0 859.3 -- 55
2020-11-20 22:00:00 6.6 9 Sudeste 14 Sur 0 859.4 -- 58
2020-11-20 21:00:00 6.9 4 Sudeste 14 Oeste 0 859.6 -- 56
2020-11-20 20:00:00 7.4 5 Sudeste 10 Nordeste 0 859.9 -- 57
2020-11-20 19:00:00 7.5 3 Oeste 13 Sur 0 859.6 -- 56
2020-11-20 18:00:00 9.4 5 Sur 17 Nordeste 0 859.7 -- 49
2020-11-20 17:00:00 11 8 Nordeste 17 Este 0 859.5 -- 45
2020-11-20 16:00:00 9 5 Norte 20 Noroeste 0 859.7 -- 57
2020-11-20 15:00:00 15 9 Norte 23 Sudeste 0 859.8 -- 36
2020-11-20 14:00:00 14.1 6 Norte 19 Noroeste 0 860.6 -- 33
2020-11-20 13:00:00 14 11 Noroeste 19 Oeste 0 861.1 -- 37
2020-11-20 12:00:00 13.7 4 Norte 13 Sudeste 0 861.9 -- 32
2020-11-20 11:00:00 10.8 11 Sudeste 14 Sudeste 0 861.5 -- 23
2020-11-20 10:00:00 8.8 10 Sudeste 13 Sudeste 0 861.7 -- 30
2020-11-20 09:00:00 5.7 3 Noroeste 12 Noroeste 0 861.5 -- 41
2020-11-20 08:00:00 4.4 4 Noroeste 8 Norte 0 861.5 -- 40
2020-11-20 07:00:00 5 5 Nordeste 10 Norte 0 861.4 -- 36
2020-11-20 06:00:00 4.6 2 Norte 7 Sudeste 0 861.5 -- 30
2020-11-20 05:00:00 4.7 5 Sudeste 6 Sudeste 0 861.8 -- 32
2020-11-20 04:00:00 4.2 0 Calma 9 Sudeste 0 862.1 -- 36
2020-11-20 03:00:00 4.8 8 Sudeste 12 Sudeste 0 862.1 -- 32
2020-11-20 02:00:00 3.8 3 Sudeste 11 Noroeste 0 862.6 -- 34
2020-11-20 01:00:00 5.3 9 Noroeste 15 Noroeste 0 863.1 -- 27
2020-11-20 00:00:00 5.3 12 Noroeste 15 Noroeste 0 863.1 -- 28
2020-11-19 23:00:00 4 2 Sudeste 8 Oeste 0 863.3 -- 43
2020-11-19 22:00:00 3.3 5 Noroeste 12 Noroeste 0 863.3 -- 54
2020-11-19 21:00:00 3.5 6 Sudeste 10 Sudeste 0 863.2 -- 88
2020-11-19 20:00:00 3.5 3 Norte 12 Sudeste 0 863.5 -- 88
2020-11-19 19:00:00 2.2 2 Noroeste 18 Noroeste 0 863.3 -- 94
2020-11-19 18:00:00 5.1 13 Noroeste 17 Noroeste 0 863.4 -- 96
2020-11-19 17:00:00 6.7 13 Noroeste 22 Noroeste 0 863.2 -- 95
2020-11-19 16:00:00 7.3 14 Noroeste 21 Noroeste 0 863 -- 94
2020-11-19 15:00:00 8.6 16 Noroeste 22 Noroeste 0 863.3 -- 93
2020-11-19 14:00:00 13.8 11 Noroeste 15 Noroeste 0 863.2 -- 61
2020-11-19 13:00:00 12.2 9 Noroeste 14 Noroeste 0 863.7 -- 77
2020-11-19 12:00:00 12.2 12 Noroeste 15 Noroeste 0 863.9 -- 71
2020-11-19 11:00:00 10.6 10 Sudeste 13 Sudeste 0 863.5 -- 84
2020-11-19 10:00:00 6.9 9 Sudeste 14 Sudeste 0 863.1 -- 96
2020-11-19 09:00:00 6.5 3 Norte 18 Noroeste 0 863.3 -- 96
2020-11-19 08:00:00 6.7 7 Noroeste 24 Oeste 0 862.9 -- 96
2020-11-19 07:00:00 6.3 13 Noroeste 24 Norte 0 862.1 -- 96
2020-11-19 06:00:00 6.3 2 Sudeste 12 Noroeste 0 861.3 -- 96
2020-11-19 05:00:00 7.4 10 Noroeste 16 Norte 0 861.5 -- 96
2020-11-19 04:00:00 7.5 11 Noroeste 19 Noroeste 0 861 -- 96
2020-11-19 03:00:00 7.6 14 Noroeste 24 Noroeste 0 860.6 -- 95
2020-11-19 02:00:00 7.6 9 Noroeste 15 Sudoeste 0 860.6 -- 80
2020-11-19 01:00:00 7.6 6 Sudeste 17 Este 0 860.4 -- 87
2020-11-19 00:00:00 8.7 0 Calma 15 Noroeste 0 860.5 -- 91
2020-11-18 23:00:00 9 12 Noroeste 18 Noroeste 0 860.6 -- 91
2020-11-18 22:00:00 9 9 Noroeste 14 Noroeste 0 860.1 -- 88
2020-11-18 21:00:00 9.6 10 Oeste 20 Noroeste 0 859.3 -- 81
2020-11-18 20:00:00 12.3 9 Noroeste 23 Noroeste 0 858.5 -- 48
2020-11-18 19:00:00 11.8 6 Noroeste 21 Sur 0 858 -- 52
2020-11-18 18:00:00 11.9 11 Sur 22 Sur 0 857.5 -- 54
2020-11-18 17:00:00 12.5 4 Sur 11 Sudoeste 0 857 -- 54
2020-11-18 16:00:00 12.4 3 Oeste 13 Sur 0 856.8 -- 54
2020-11-18 15:00:00 13.8 5 Sudeste 22 Sudeste 0 856.8 -- 53
2020-11-18 14:00:00 15.8 9 Sudeste 20 Sudeste 0 856.6 -- 49
2020-11-18 13:00:00 15.6 8 Sudeste 20 Sudeste 0 857 -- 52
2020-11-18 12:00:00 14.4 12 Sudeste 19 Sudeste 0 857 -- 58
2020-11-18 11:00:00 12.8 13 Sudeste 26 Sudeste 0 856.8 -- 67
2020-11-18 10:00:00 10.9 15 Sudeste 28 Sudeste 0 856.3 -- 77
2020-11-18 09:00:00 8 11 Sudeste 19 Sudeste 0 855.8 -- 89
2020-11-18 08:00:00 7.9 10 Sur 16 Sur 0 855.2 -- 87
2020-11-18 07:00:00 8.9 10 Sudeste 28 Sudeste 0 855 -- 84
2020-11-18 06:00:00 9.2 17 Sudeste 55 Este 0 854.6 -- 82
2020-11-18 05:00:00 9.3 19 Este 41 Sudeste 0 854.5 -- 83
2020-11-18 04:00:00 7.5 12 Sudeste 19 Sur 0 854.8 -- 84
2020-11-18 03:00:00 7 11 Sudeste 33 Sur 0 854.6 -- 78
2020-11-18 02:00:00 7.8 16 Sudeste 33 Sudeste 0 854.8 -- 73
2020-11-18 01:00:00 9.2 12 Sudeste 35 Sur 0 855.4 -- 70
2020-11-18 00:00:00 8.4 15 Sudeste 28 Sudeste 0 855.4 -- 70
2020-11-17 23:00:00 7.5 12 Sudeste 32 Sudeste 0 855.3 -- 74
2020-11-17 22:00:00 7.1 13 Sudeste 30 Sur 0 855.2 -- 79
2020-11-17 21:00:00 6.5 10 Sudeste 17 Este 0 855.3 -- 84
2020-11-17 20:00:00 7.7 9 Sudeste 21 Sur 0 855.1 -- 79
2020-11-17 19:00:00 8.9 10 Sudeste 17 Sudeste 0 855 -- 75
2020-11-17 18:00:00 10.9 9 Sudeste 20 Sudeste 0 854.9 -- 59
2020-11-17 17:00:00 12.4 12 Sur 22 Sur 0 855 -- 51
2020-11-17 16:00:00 12.7 12 Sur 22 Sudeste 0 854.8 -- 54
2020-11-17 15:00:00 16.6 10 Sudeste 15 Sudeste 0 855.1 -- 43
2020-11-17 14:00:00 15.2 11 Sudeste 18 Sudeste 0 855.4 -- 46
2020-11-17 13:00:00 14.3 12 Sudeste 19 Sudeste 0 855.9 -- 48
2020-11-17 12:00:00 13.6 12 Sudeste 18 Sudeste 0 856.5 -- 47
2020-11-17 11:00:00 11.7 11 Sudeste 15 Sudeste 0 856.5 -- 55
2020-11-17 10:00:00 9.6 11 Sudeste 14 Sudeste 0 856.6 -- 55
2020-11-17 09:00:00 7.5 8 Sudeste 11 Sudeste 0 856.1 -- 58
2020-11-17 08:00:00 5.7 8 Sudeste 12 Sur 0 855.9 -- 66
2020-11-17 07:00:00 4.3 6 Sudeste 14 Sudeste 0 855.8 -- 75
2020-11-17 06:00:00 4.2 13 Sudeste 15 Sudeste 0 855.7 -- 76
2020-11-17 05:00:00 3.8 12 Sudeste 14 Sudeste 0 855.7 -- 76
2020-11-17 04:00:00 6.3 8 Sur 12 Sur 0 855.8 -- 57
2020-11-17 03:00:00 6 9 Sudeste 14 Sudeste 0 855.9 -- 59
2020-11-17 02:00:00 5.5 9 Sudeste 11 Sudeste 0 856.1 -- 69
2020-11-17 01:00:00 6 6 Sudeste 8 Sudeste 0 856.4 -- 69
2020-11-17 00:00:00 5.5 6 Sudeste 9 Sudeste 0 856.5 -- 70
2020-11-16 23:00:00 6.1 6 Sudeste 7 Sudeste 0 856.4 -- 67
2020-11-16 22:00:00 6.1 5 Sudeste 7 Sudeste 0 856.2 -- 68
2020-11-16 21:00:00 5.6 0 Calma 5 Nordeste 0 855.9 -- 69
2020-11-16 20:00:00 7.1 4 Sudeste 8 Sur 0 855.8 -- 64
2020-11-16 19:00:00 7.6 4 Sudeste 8 Sudeste 0 855.4 -- 58
2020-11-16 18:00:00 7.7 0 Calma 8 Sudoeste 0 855.3 -- 59
2020-11-16 17:00:00 8.4 2 Noroeste 7 Oeste 0 855 -- 45
2020-11-16 16:00:00 -- -- -- -- -- -- -- -- --
2020-11-16 15:00:00 13.3 -- -- -- -- 0 854.7 -- 33
2020-11-16 14:00:00 12.9 -- -- -- -- -- 854.6 -- 39
2020-11-16 13:00:00 13 5 Sudeste 12 Sudeste 0 854.8 -- 24
2020-11-16 12:00:00 11.5 9 Sudeste 12 Sudeste 0 854.8 -- 30
2020-11-16 11:00:00 9.5 4 Norte 11 Noroeste 0 854.5 -- 34
2020-11-16 10:00:00 6.4 4 Noroeste 8 Noroeste 0 854.1 -- 61
2020-11-16 09:00:00 2 0 Calma 7 Sudeste 0 853.6 -- 75
2020-11-16 08:00:00 1.9 4 Sudeste 8 Sudeste 0 852.9 -- 85
2020-11-16 07:00:00 1.7 5 Sudeste 7 Sudeste 0 853.2 -- 92
2020-11-16 06:00:00 1.7 6 Noroeste 10 Noroeste 0 852.6 -- 92
2020-11-16 05:00:00 2 8 Sudeste 12 Sudeste 0 852.4 -- 94
2020-11-16 04:00:00 2.4 3 Sudeste 10 Noroeste 0 852.6 -- 94
2020-11-16 03:00:00 2.7 8 Noroeste 12 Noroeste 0 852.7 -- 95
2020-11-16 02:00:00 3.1 2 Noroeste 14 Noroeste 0 851.9 -- 94
2020-11-16 01:00:00 3.9 3 Norte 12 Norte 0 851.9 -- 96
2020-11-16 00:00:00 5.2 6 Noroeste 23 Norte 0 851.7 -- 96
2020-11-15 23:00:00 5.7 15 Noroeste 24 Noroeste 0 851.5 -- 96
2020-11-15 22:00:00 6.2 11 Noroeste 19 Norte 0 851.3 -- 96
2020-11-15 21:00:00 6.3 13 Noroeste 22 Norte 0 850.7 -- 95
2020-11-15 20:00:00 6.5 15 Norte 43 Noroeste 0 849.9 -- 93
2020-11-15 19:00:00 6.9 24 Noroeste 64 Noroeste 0 849.5 -- 91
2020-11-15 18:00:00 7.4 18 Noroeste 50 Noroeste 0 848.8 -- 95
2020-11-15 17:00:00 8.5 26 Norte 54 Norte 0.2 848.2 -- 93
2020-11-15 16:00:00 9.1 15 Noroeste 43 Noroeste 0.8 848.2 -- 95
2020-11-15 15:00:00 9.7 19 Noroeste 63 Noroeste 0.6 847.5 -- 89
2020-11-15 14:00:00 10.1 27 Noroeste 57 Noroeste 0 847.3 -- 82
2020-11-15 13:00:00 10.8 22 Noroeste 66 Noroeste 0 847.5 -- 76
2020-11-15 12:00:00 10.6 37 Noroeste 74 Noroeste 0 847.2 -- 81
2020-11-15 11:00:00 9.5 24 Noroeste 64 Noroeste 2.4 847 -- 90
2020-11-15 10:00:00 9.5 17 Noroeste 37 Noroeste 2 846.8 -- 89
2020-11-15 09:00:00 9.6 10 Noroeste 42 Norte 0 846.3 -- 86
2020-11-15 08:00:00 9.4 15 Sudoeste 59 Sudeste 0 846 -- 88
2020-11-15 07:00:00 9.3 13 Este 68 Sudeste 0 845.9 -- 88
2020-11-15 06:00:00 9.2 22 Sudeste 67 Sur 0 845.7 -- 88
2020-11-15 05:00:00 8.8 24 Sudeste 66 Sudeste 0 845.6 -- 93
2020-11-15 04:00:00 9.1 20 Sudeste 71 Sudeste 0 846.3 -- 87
2020-11-15 03:00:00 8.9 28 Sudeste 71 Sudeste 0 846.8 -- 88
2020-11-15 02:00:00 8.4 24 Sudeste 72 Sudeste 0 847 -- 92
2020-11-15 01:00:00 8.3 21 Sudeste 48 Sudeste 0 847.4 -- 92
2020-11-15 00:00:00 8.1 20 Sudeste 55 Sudeste 0 847.8 -- 92
2020-11-14 23:00:00 8 26 Sudeste 54 Sur 0 848 -- 91
2020-11-14 22:00:00 8.3 25 Sudeste 68 Sudeste 0 848 -- 86
2020-11-14 21:00:00 8.5 35 Sudeste 68 Sudeste 0 847.5 -- 82
2020-11-14 20:00:00 8.5 31 Sudeste 62 Sudeste 0 847.8 -- 81
2020-11-14 19:00:00 8.5 36 Sudeste 73 Sudeste 0 847.1 -- 82
2020-11-14 18:00:00 8.4 24 Sudeste 65 Sudeste 0 847.5 -- 83
2020-11-14 17:00:00 9.1 16 Sudeste 45 Sur 0 847.4 -- 80
2020-11-14 16:00:00 8.9 21 Sudeste 46 Sur 0 847 -- 79
2020-11-14 15:00:00 8.6 23 Sudeste 49 Sur 0 847.2 -- 76
2020-11-14 14:00:00 8.8 23 Sudeste 46 Sudeste 0 847.4 -- 73
2020-11-14 13:00:00 8.8 21 Sudeste 33 Sur 0 847.8 -- 72
2020-11-14 12:00:00 9.9 17 Sudeste 40 Sudeste 0 848.3 -- 67
2020-11-14 11:00:00 7.2 21 Sudeste 33 Sudeste 0 848.3 -- 77
2020-11-14 10:00:00 4.5 13 Sudeste 21 Sudeste 0 848.5 -- 87
2020-11-14 09:00:00 3.3 14 Sudeste 21 Sudeste 0 848.2 -- 88
2020-11-14 08:00:00 1.7 7 Sudeste 22 Sur 0 847.8 -- 92
2020-11-14 07:00:00 2.9 15 Sur 27 Sur 0 847.5 -- 88
2020-11-14 06:00:00 2.6 12 Sudeste 21 Sudeste 0 847.5 -- 92
2020-11-14 05:00:00 2.6 7 Sudeste 16 Sur 0 847.9 -- 91
2020-11-14 04:00:00 2.3 11 Sudeste 15 Sudeste 0 848.1 -- 93
2020-11-14 03:00:00 3.1 5 Sudeste 10 Sur 0 848.3 -- 89
2020-11-14 02:00:00 2.7 8 Sur 17 Sur 0 848.8 -- 91
2020-11-14 01:00:00 2.3 8 Sudeste 25 Sudeste 0 849.1 -- 92
2020-11-14 00:00:00 3.1 14 Sur 21 Sudeste 0 849.4 -- 91
2020-11-13 23:00:00 2.7 15 Sudeste 19 Sudeste 0 849.3 -- 93
2020-11-13 22:00:00 2.8 14 Sudeste 21 Sur 0 849.3 -- 94
2020-11-13 21:00:00 3.6 13 Sudeste 22 Sur 0 849.4 -- 90
2020-11-13 20:00:00 5.4 15 Sur 24 Sur 0 849.4 -- 85
2020-11-13 19:00:00 6.1 4 Sudeste 15 Sur 0 849.1 -- 78
2020-11-13 18:00:00 7 5 Sudeste 18 Sudeste 0 849.1 -- 68
2020-11-13 17:00:00 8.6 11 Sur 19 Sur 0 849 -- 54
2020-11-13 16:00:00 10.1 11 Sur 19 Sudeste 0 849 -- 47
2020-11-13 15:00:00 13.2 8 Sudeste 25 Sudeste 0 849.3 -- 41
2020-11-13 14:00:00 12.6 9 Sudeste 21 Sudeste 0 849.7 -- 47
2020-11-13 13:00:00 11 17 Sudeste 25 Sudeste 0 850 -- 60
2020-11-13 12:00:00 9.9 18 Sudeste 25 Sudeste 0 850.2 -- 65
2020-11-13 11:00:00 8.9 16 Sudeste 22 Sudeste 0 850.3 -- 69
2020-11-13 10:00:00 5.1 10 Sudeste 19 Sudeste 0 850.5 -- 85
2020-11-13 09:00:00 4.6 10 Sudeste 17 Sur 0 849.8 -- 86
2020-11-13 08:00:00 3.7 10 Sur 18 Sur 0 849.6 -- 90
2020-11-13 07:00:00 3.8 7 Sudeste 18 Sudeste 0 849.7 -- 86
2020-11-13 06:00:00 4.4 7 Sudeste 16 Sur 0 849.7 -- 85
2020-11-13 05:00:00 4.4 7 Sudeste 11 Sudeste 0 849.6 -- 85
2020-11-13 04:00:00 4.4 6 Sudeste 19 Sudeste 0 849.5 -- 94
2020-11-13 03:00:00 4.5 11 Sudeste 17 Sudeste 0 849.5 -- 95
2020-11-13 02:00:00 4.2 9 Sudeste 18 Sudeste 0 849.9 -- 94
2020-11-13 01:00:00 4.5 10 Sudeste 12 Sudeste 0 850.2 -- 94
2020-11-13 00:00:00 4.7 9 Sudeste 17 Sur 0 850.4 -- 93
2020-11-12 23:00:00 5.2 11 Sudeste 14 Sudeste 0 850.4 -- 91
2020-11-12 22:00:00 5.9 4 Sur 10 Sudeste 0 850.7 -- 91
2020-11-12 21:00:00 6 4 Sudeste 13 Sur 0 850.4 -- 92
2020-11-12 20:00:00 6.1 10 Sudeste 15 Sudeste 0 850.4 -- 91
2020-11-12 19:00:00 7.3 9 Sur 21 Sudeste 0 850.5 -- 85
2020-11-12 18:00:00 8.9 11 Sur 18 Sudoeste 0 850.2 -- 79
2020-11-12 17:00:00 10.3 9 Sur 26 Sudeste 0 850.1 -- 74
2020-11-12 16:00:00 10.9 12 Sudeste 24 Sudeste 0 850.1 -- 65
2020-11-12 15:00:00 13.3 16 Sudeste 27 Sudeste 0 850.4 -- 61
2020-11-12 14:00:00 11.7 15 Sudeste 25 Sudeste 0 851.1 -- 72
2020-11-12 13:00:00 10.4 14 Sudeste 25 Sudeste 0 851.8 -- 76
2020-11-12 12:00:00 10.6 14 Sudeste 22 Sudeste 0 852.4 -- 77
2020-11-12 11:00:00 8.2 12 Sudeste 18 Sudeste 0 852.4 -- 90
2020-11-12 10:00:00 8.5 8 Sudeste 15 Sudeste 0 852.3 -- 85
2020-11-12 09:00:00 5.8 6 Sudeste 13 Sur 0 852 -- 95
2020-11-12 08:00:00 5.3 8 Sudeste 14 Sur 0 851.9 -- 96
2020-11-12 07:00:00 5 9 Sudeste 11 Sudeste 0 851.8 -- 96
2020-11-12 06:00:00 4.9 8 Sudeste 18 Sudeste 0 851.7 -- 96
2020-11-12 05:00:00 4.5 15 Sudeste 19 Sudeste 0 851.7 -- 95
2020-11-12 04:00:00 4.9 10 Sudeste 17 Sudeste 0 852 -- 95
2020-11-12 03:00:00 4.7 13 Sudeste 18 Sur 0 852.2 -- 94
2020-11-12 02:00:00 4.8 13 Sudeste 18 Sudeste 0 852.5 -- 92
2020-11-12 01:00:00 4.9 10 Sudeste 17 Sudeste 0 852.6 -- 90
2020-11-12 00:00:00 4.8 12 Sudeste 22 Sudeste 0 852.6 -- 93
2020-11-11 23:00:00 4.8 13 Sudeste 24 Sudeste 0 852.6 -- 92
2020-11-11 22:00:00 5.1 16 Sudeste 32 Sur 0 852.3 -- 88
2020-11-11 21:00:00 5.3 15 Sudeste 28 Sudeste 0 852.1 -- 80
2020-11-11 20:00:00 5.4 13 Sudeste 26 Sudeste 0 851.9 -- 83
2020-11-11 19:00:00 5.2 16 Sur 26 Sudeste 0 851.5 -- 82
2020-11-11 18:00:00 5.9 17 Sudeste 36 Sudeste 0 851.4 -- 76
2020-11-11 17:00:00 6.7 14 Sudeste 40 Sudeste 0 851.3 -- 69
2020-11-11 16:00:00 8.2 14 Sur 59 Sudeste 0 850.9 -- 60
2020-11-11 15:00:00 7.7 21 Sudeste 66 Sudeste 0 851.1 -- 63
2020-11-11 14:00:00 8.1 29 Sudeste 61 Sudeste 0 850.9 -- 58
2020-11-11 13:00:00 8.4 18 Sudeste 37 Sudeste 0 851.8 -- 58
2020-11-11 12:00:00 7.8 19 Sudeste 30 Sudeste 0 852.3 -- 69
2020-11-11 11:00:00 5.7 18 Sudeste 27 Sudeste 0 852 -- 79
2020-11-11 10:00:00 4.2 20 Sudeste 30 Sudeste 0 852.1 -- 85
2020-11-11 09:00:00 1.1 17 Sudeste 24 Sur 0 852.2 -- 95
2020-11-11 08:00:00 0.5 9 Sudeste 24 Sudeste 0 852.4 -- 95
2020-11-11 07:00:00 0.9 19 Sudeste 24 Sudeste 0 852.5 -- 94
2020-11-11 06:00:00 -0.2 8 Sudeste 14 Sudeste 0 853.1 -- 95
2020-11-11 05:00:00 0.4 9 Sudeste 13 Sudeste 0 853.3 -- 93
2020-11-11 04:00:00 1.2 8 Sudeste 13 Sudeste 0 853.8 -- 92
2020-11-11 03:00:00 1.5 11 Sudeste 14 Sudeste 0 854.1 -- 93
2020-11-11 02:00:00 1.6 9 Sudeste 14 Sudeste 0 854.5 -- 95
2020-11-11 01:00:00 1.4 9 Sudeste 14 Sudeste 0 854.9 -- 95
2020-11-11 00:00:00 1.9 10 Sudeste 15 Sudeste 0 855.3 -- 95
2020-11-10 23:00:00 1.6 14 Sudeste 17 Sudeste 0 855.5 -- 94
2020-11-10 22:00:00 1.7 9 Sudeste 16 Sudeste 0 855.6 -- 91
2020-11-10 21:00:00 2.3 11 Sudeste 17 Sudeste 0 855.5 -- 89
2020-11-10 20:00:00 3.7 10 Sur 14 Sur 0 855.6 -- 86
2020-11-10 19:00:00 5.1 11 Sur 16 Sur 0 855.4 -- 83
2020-11-10 18:00:00 6.4 7 Sudeste 21 Sudeste 0 855.2 -- 66
2020-11-10 17:00:00 7.7 7 Sudeste 15 Sur 0 855.7 -- 57
2020-11-10 16:00:00 9 9 Sur 24 Sudeste 0 855.4 -- 50
2020-11-10 15:00:00 11.4 10 Sudeste 27 Sudeste 0 855.6 -- 48
2020-11-10 14:00:00 10.4 13 Sudeste 21 Sudeste 0 855.7 -- 49
2020-11-10 13:00:00 9.5 9 Sudeste 16 Sudeste 0 856.2 -- 63
2020-11-10 12:00:00 9.7 9 Sudeste 13 Sudeste 0 856.4 -- 63
2020-11-10 11:00:00 7.6 5 Sudeste 10 Sudeste 0 856.3 -- 62
2020-11-10 10:00:00 4.5 5 Sudeste 8 Sudeste 0 856.1 -- 84
2020-11-10 09:00:00 1.5 2 Este 7 Sudeste 0 855.9 -- 90
2020-11-10 08:00:00 -0.6 4 Sudeste 9 Sudeste 0 855.3 -- 95
2020-11-10 07:00:00 -0.5 8 Sudeste 10 Sudeste 0 855 -- 95
2020-11-10 06:00:00 0.2 7 Sudeste 10 Sudeste 0 854.9 -- 94
2020-11-10 05:00:00 1.8 7 Sudeste 10 Sur 0 854.8 -- 88
2020-11-10 04:00:00 2.3 5 Sur 10 Sur 0 855 -- 91
2020-11-10 03:00:00 3 7 Sur 12 Sur 0 854.8 -- 93
2020-11-10 02:00:00 2.9 8 Sudeste 12 Sudeste 0 854.6 -- 94
2020-11-10 01:00:00 3 6 Sudeste 10 Sur 0 854.7 -- 92
2020-11-10 00:00:00 3.2 3 Sur 11 Sudoeste 0 854.7 -- 91
2020-11-09 23:00:00 3.4 3 Sudeste 7 Sudeste 0 854.7 -- 88
2020-11-09 22:00:00 3.8 2 Noroeste 9 Noroeste 0 854.4 -- 93
2020-11-09 21:00:00 3.5 3 Noroeste 9 Noroeste 0 854 -- 90
2020-11-09 20:00:00 4.5 3 Oeste 13 Noroeste 0 853.9 -- 93
2020-11-09 19:00:00 5.6 6 Norte 10 Noroeste 0 853.3 -- 91
2020-11-09 18:00:00 6.2 5 Noroeste 14 Noroeste 0 852.8 -- 87
2020-11-09 17:00:00 6.9 9 Noroeste 16 Noroeste 0 852.4 -- 84
2020-11-09 16:00:00 7.2 8 Noroeste 15 Noroeste 0 851.9 -- 85
2020-11-09 15:00:00 7.8 6 Oeste 33 Sur 0 851.6 -- 77
2020-11-09 14:00:00 7.2 9 Sudeste 22 Sudeste 0 851.4 -- 85
2020-11-09 13:00:00 6.5 5 Este 23 Sur 0.4 851.4 -- 88
2020-11-09 12:00:00 6 10 Sudeste 33 Este 0.4 851.5 -- 91
2020-11-09 11:00:00 6.3 14 Sudeste 43 Sudeste 0 851 -- 89
2020-11-09 10:00:00 5.5 15 Sudeste 36 Sudeste 0 850.7 -- 91
2020-11-09 09:00:00 5.3 18 Sudeste 34 Sudeste 0 850.1 -- 92
2020-11-09 08:00:00 5 13 Sudeste 32 Este 0 849.3 -- 93
2020-11-09 07:00:00 5.2 19 Sudeste 45 Sudeste 0 849 -- 91
2020-11-09 06:00:00 5.4 18 Sudeste 33 Sudeste 0 848.8 -- 90
2020-11-09 05:00:00 5.3 18 Sudeste 38 Sur 0 848.6 -- 92
2020-11-09 04:00:00 5.8 19 Sudeste 46 Sudeste 0 848.5 -- 86
2020-11-09 03:00:00 5.5 15 Sudeste 36 Sudeste 0 848.4 -- 89
2020-11-09 02:00:00 5.7 16 Sudeste 38 Sudeste 0 848 -- 87
2020-11-09 01:00:00 6.1 21 Sudeste 48 Sur 0 848.3 -- 84
2020-11-09 00:00:00 6.3 17 Sudeste 45 Sudeste 0 848.3 -- 83
2020-11-08 23:00:00 6.3 13 Sudeste 30 Sur 0 848.3 -- 83
2020-11-08 22:00:00 6.4 12 Sudeste 30 Sudeste 0 848.2 -- 84
2020-11-08 21:00:00 7 15 Sudeste 33 Sudeste 0 847.9 -- 79
2020-11-08 20:00:00 7 15 Sudeste 47 Sudeste 0 847.4 -- 81
2020-11-08 19:00:00 7.5 22 Sudeste 72 Sudeste 0 847.5 -- 80
2020-11-08 18:00:00 7.5 21 Sudeste 45 Sudeste 0 846.8 -- 77
2020-11-08 17:00:00 7.5 19 Sudeste 34 Sudeste 0 847 -- 83
2020-11-08 16:00:00 7.8 11 Sudeste 46 Sudeste 0 846.8 -- 80
2020-11-08 15:00:00 8.3 22 Sudeste 60 Sudeste 0 846.9 -- 76
2020-11-08 14:00:00 9.3 22 Sudeste 53 Sudeste 0 847 -- 71
2020-11-08 13:00:00 8 16 Sudeste 39 Sudeste 0 847.5 -- 81
2020-11-08 12:00:00 7.7 19 Sudeste 39 Sudeste 0.2 848.1 -- 81
2020-11-08 11:00:00 7.4 19 Sudeste 45 Sudeste 0.8 847.9 -- 84
2020-11-08 10:00:00 7.2 22 Sudeste 44 Sudeste 0 847.6 -- 85
2020-11-08 09:00:00 6.4 18 Sudeste 37 Sudeste 0 847.3 -- 87
2020-11-08 08:00:00 6.8 22 Sudeste 55 Sudeste 0 847.4 -- 83
2020-11-08 07:00:00 7 23 Sudeste 50 Sudeste 0 847.4 -- 86
2020-11-08 06:00:00 6.7 15 Sudeste 41 Sudeste 0 847.5 -- 91
2020-11-08 05:00:00 6.7 18 Sudeste 41 Sudeste 0 847.7 -- 91
2020-11-08 04:00:00 6.6 14 Sudeste 32 Sur 0 848 -- 91
2020-11-08 03:00:00 6.7 15 Sudeste 32 Sudeste 0 848.6 -- 90
2020-11-08 02:00:00 6.9 18 Sudeste 30 Sudeste 0 848.5 -- 87
2020-11-08 01:00:00 6.3 16 Sudeste 26 Sudeste 0 848.7 -- 88
2020-11-08 00:00:00 6.4 17 Sudeste 27 Sudeste 0 848.8 -- 87
2020-11-07 23:00:00 6.6 19 Sudeste 50 Sur 0 849.1 -- 86
2020-11-07 22:00:00 6.6 24 Sudeste 62 Sudeste 0 849 -- 86
2020-11-07 21:00:00 6.4 14 Sudeste 36 Sudeste 0 848.7 -- 91
2020-11-07 20:00:00 6.5 14 Sudeste 38 Sur 0 848.6 -- 90
2020-11-07 19:00:00 6.8 15 Sudeste 51 Sudeste 0 848.3 -- 87
2020-11-07 18:00:00 7.2 17 Sudeste 37 Sur 0 847.6 -- 82
2020-11-07 17:00:00 6.8 14 Sudeste 35 Sudoeste 0 847.2 -- 83
2020-11-07 16:00:00 7.4 15 Sudeste 37 Sudeste 0 846.8 -- 77
2020-11-07 15:00:00 7.9 20 Sudeste 37 Sudeste 0 846.6 -- 73
2020-11-07 14:00:00 8.6 17 Sudeste 32 Sudeste 0 846.5 -- 70
2020-11-07 13:00:00 8.6 14 Sudeste 36 Sudeste 0 846 -- 70
2020-11-07 12:00:00 8.3 16 Sudeste 36 Sudeste 0 845.8 -- 75
2020-11-07 11:00:00 6.9 9 Sudeste 30 Sudeste 0 845.5 -- 85
2020-11-07 10:00:00 7.1 12 Sudeste 30 Sudeste 0 844.5 -- 79
2020-11-07 09:00:00 6.7 14 Sudeste 25 Sudeste 0 843.5 -- 83
2020-11-07 08:00:00 6.5 10 Sudeste 25 Sudeste 0 843 -- 85
2020-11-07 07:00:00 6.8 16 Sudeste 31 Sudeste 0 842.7 -- 83
2020-11-07 06:00:00 6.8 14 Sudeste 31 Sudeste 0 842.5 -- 83
2020-11-07 05:00:00 6.9 21 Sudeste 36 Sudeste 0 842.4 -- 84
2020-11-07 04:00:00 7.2 22 Sudeste 52 Sudeste 0 842.1 -- 82
2020-11-07 03:00:00 7.8 29 Sudeste 56 Sudeste 0 842 -- 77
2020-11-07 02:00:00 8 34 Sudeste 67 Sudeste 0 841.8 -- 75
2020-11-07 01:00:00 8 35 Sudeste 66 Sudeste 0 841.4 -- 76
2020-11-07 00:00:00 8.2 33 Sudeste 76 Sudeste 0 841.5 -- 74
2020-11-06 23:00:00 8.2 37 Sudeste 74 Sudeste 0 841.7 -- 78
2020-11-06 22:00:00 9.8 35 Sudeste 81 Sudeste 0 841.6 -- 72
2020-11-06 21:00:00 10.5 38 Sudeste 82 Sudeste 0 841 -- 65
2020-11-06 20:00:00 11.2 52 Sudeste 91 Sudeste 0 841.1 -- 67
2020-11-06 19:00:00 10.4 40 Sudeste 70 Sudeste 0 841.4 -- 73
2020-11-06 18:00:00 10.3 45 Sudeste 81 Sudeste 0 841.5 -- 73
2020-11-06 17:00:00 10.4 48 Sudeste 93 Sudeste 0 841.4 -- 73
2020-11-06 16:00:00 9.8 48 Sudeste 91 Sudeste 0 841.7 -- 77
2020-11-06 15:00:00 10 41 Sudeste 85 Sudeste 0 842.3 -- 74
2020-11-06 14:00:00 10.7 50 Sudeste 80 Sudeste 0 842.9 -- 65
2020-11-06 13:00:00 10.5 46 Sudeste 75 Sudeste 0 843.9 -- 68
2020-11-06 12:00:00 9.6 33 Sudeste 71 Sudeste 0 845.2 -- 72
2020-11-06 11:00:00 9.1 48 Sudeste 75 Sudeste 0 845.6 0.2 73
2020-11-06 10:00:00 9.2 41 Sudeste 68 Sudeste 0 845.3 -- 72
2020-11-06 09:00:00 7.6 36 Sudeste 60 Sudeste 0 845.3 -- 81
2020-11-06 08:00:00 7.6 31 Sudeste 62 Sudeste 0 845.4 -- 80
2020-11-06 07:00:00 7 24 Sudeste 62 Sudeste 0 845.5 -- 76
2020-11-06 06:00:00 7.1 45 Sudeste 71 Sudeste 0 845.1 -- 83
2020-11-06 05:00:00 6.9 39 Sudeste 58 Sudeste 0 845.1 -- 88
2020-11-06 04:00:00 6.6 31 Sudeste 51 Sudeste 0 845.5 -- 88
2020-11-06 03:00:00 6.4 23 Sudeste 44 Sudeste 0 846.5 -- 89
2020-11-06 02:00:00 6.1 25 Sudeste 51 Sudeste 0 846.5 -- 92
2020-11-06 01:00:00 5.9 31 Sudeste 62 Sudeste 0 846.5 -- 93
2020-11-06 00:00:00 6.2 39 Sudeste 71 Sudeste 0.4 846.6 -- 92
2020-11-05 23:00:00 6.2 44 Sudeste 70 Sudeste 0 847.1 -- 94
2020-11-05 22:00:00 6.2 43 Sudeste 64 Sudeste 0 847.2 -- 94
2020-11-05 21:00:00 6.3 39 Sudeste 62 Sudeste 0 847.9 -- 94
2020-11-05 20:00:00 6.4 36 Sudeste 58 Sudeste 0 848.1 -- 94
2020-11-05 19:00:00 6.6 37 Sudeste 59 Sudeste 0 848.5 -- 92
2020-11-05 18:00:00 6.5 30 Sudeste 55 Sudeste 0 848.4 -- 91
2020-11-05 17:00:00 6.7 35 Sudeste 59 Sudeste 0 848.5 -- 87
2020-11-05 16:00:00 6.7 34 Sudeste 56 Sudeste 0 848.6 -- 85
2020-11-05 15:00:00 7 33 Sudeste 52 Sudeste 0 848.6 -- 83
2020-11-05 14:00:00 7 31 Sudeste 49 Sudeste 0 849.3 -- 81
2020-11-05 13:00:00 6.7 32 Sudeste 57 Sudeste 0 849.8 -- 81
2020-11-05 12:00:00 7 37 Sudeste 62 Sur 0 850.2 -- 79
2020-11-05 11:00:00 7.6 38 Sudeste 60 Sudeste 0 850.5 -- 75
2020-11-05 10:00:00 6.6 42 Sudeste 71 Sudeste 0 850.2 -- 77
2020-11-05 09:00:00 5.8 35 Sudeste 57 Sudeste 0 850 -- 81
2020-11-05 08:00:00 5.4 22 Sudeste 34 Sudeste 0 849.9 -- 84
2020-11-05 07:00:00 5 26 Sudeste 40 Sudeste 0 850.1 -- 85
2020-11-05 06:00:00 5.1 27 Sudeste 43 Sudeste 0 850.1 -- 83
2020-11-05 05:00:00 5.1 27 Sudeste 47 Sudeste 0 850 -- 81
2020-11-05 04:00:00 4.8 30 Sudeste 50 Sudeste 0 850.5 -- 81
2020-11-05 03:00:00 4.2 28 Sudeste 66 Sudeste 0 850.5 -- 79
2020-11-05 02:00:00 4.2 38 Sudeste 76 Sudeste 0 850.3 -- 78
2020-11-05 01:00:00 2.9 30 Sudeste 60 Sur 0 850.6 -- 81
2020-11-05 00:00:00 2.4 20 Sur 36 Sur 0 850.9 -- 77